Time;durP1;ratioP1;P1;durP2;ratioP2;P2;SDS_P1;SDS_P2;PMS_P1;PMS_P2;Temp;Humidity;BMP_temperature;BMP_pressure;BME280_temperature;BME280_humidity;BME280_pressure;Samples;Min_cycle;Max_cycle;Signal;HPM_P1;HPM_P2
2022/02/26 00:02:28;;;;;;;0.00;0.00;;;;;;;4.07;61.19;101903.47;5036519;28;20052;-77
2022/02/26 00:04:54;;;;;;;0.00;0.00;;;;;;;3.98;61.08;101897.31;5037890;28;20017;-74
2022/02/26 00:07:20;;;;;;;0.00;0.00;;;;;;;4.02;61.17;101909.44;5036147;28;20052;-69
2022/02/26 00:09:45;;;;;;;0.00;0.00;;;;;;;3.95;60.74;101908.50;5049897;28;20037;-71
2022/02/26 00:12:12;;;;;;;0.00;0.00;;;;;;;3.97;61.05;101900.19;5009275;28;20033;-71
2022/02/26 00:14:38;;;;;;;0.00;0.00;;;;;;;3.95;61.02;101897.69;5011693;28;20038;-70
2022/02/26 00:17:03;;;;;;;0.00;0.00;;;;;;;3.90;61.02;101893.84;5012459;28;20034;-69
2022/02/26 00:19:31;;;;;;;0.00;0.00;;;;;;;3.91;61.36;101907.19;5026531;28;20018;-71
2022/02/26 00:21:58;;;;;;;0.00;0.00;;;;;;;3.87;60.84;101897.78;5029054;28;20032;-69
2022/02/26 00:24:23;;;;;;;0.00;0.00;;;;;;;3.86;61.27;101887.97;5028361;28;20132;-69
2022/02/26 00:26:50;;;;;;;0.00;0.00;;;;;;;3.85;61.50;101897.13;5008963;28;20091;-71
2022/02/26 00:29:17;;;;;;;0.00;0.00;;;;;;;3.85;61.89;101902.53;5033479;28;20364;-70
2022/02/26 00:31:42;;;;;;;0.00;0.00;;;;;;;3.84;62.03;101901.69;5031375;28;20379;-70
2022/02/26 00:34:08;;;;;;;0.00;0.00;;;;;;;3.85;61.55;101902.53;5028845;28;20022;-71
2022/02/26 00:36:33;;;;;;;0.00;0.00;;;;;;;3.83;61.97;101888.34;5024499;28;20042;-69
2022/02/26 00:38:59;;;;;;;0.00;0.00;;;;;;;3.83;61.77;101896.47;5026811;28;20046;-70
2022/02/26 00:41:26;;;;;;;0.00;0.00;;;;;;;3.80;62.36;101884.16;5028184;28;20040;-69
2022/02/26 00:43:52;;;;;;;0.00;0.00;;;;;;;3.79;62.30;101879.75;5029996;28;20107;-70
2022/02/26 00:46:18;;;;;;;0.00;0.00;;;;;;;3.81;62.03;101882.25;5027816;28;20128;-70
2022/02/26 00:51:27;;;;;;;0.00;0.00;;;;;;;3.79;62.50;101878.91;5001532;28;20107;-71
2022/02/26 00:53:53;;;;;;;0.00;0.00;;;;;;;3.80;62.07;101883.31;4998959;28;20042;-70
2022/02/26 00:56:18;;;;;;;0.00;0.00;;;;;;;3.77;62.33;101883.69;5016306;28;20053;-70
2022/02/26 00:58:44;;;;;;;0.00;0.00;;;;;;;3.75;62.42;101880.31;5019577;28;20033;-70
2022/02/26 01:01:09;;;;;;;0.00;0.00;;;;;;;3.72;62.28;101876.09;5011466;28;20057;-71
2022/02/26 01:03:35;;;;;;;0.00;0.00;;;;;;;3.73;62.44;101882.38;5012571;28;20041;-70
2022/02/26 01:06:00;;;;;;;0.00;0.00;;;;;;;3.70;62.66;101880.88;5020853;28;20044;-70
2022/02/26 01:08:26;;;;;;;0.00;0.00;;;;;;;3.66;62.58;101887.66;5017965;28;20029;-69
2022/02/26 01:10:51;;;;;;;0.45;0.45;;;;;;;3.67;62.80;101890.19;5026689;28;20095;-70
2022/02/26 01:13:17;;;;;;;0.00;0.00;;;;;;;3.63;62.83;101880.75;5013885;28;20062;-68
2022/02/26 01:15:42;;;;;;;0.00;0.00;;;;;;;3.65;62.59;101897.66;5012606;28;20083;-68
2022/02/26 01:18:08;;;;;;;0.00;0.00;;;;;;;3.63;62.96;101898.84;5031056;28;20365;-70
2022/02/26 01:20:34;;;;;;;0.00;0.00;;;;;;;3.60;62.92;101885.69;4997211;28;20044;-70
2022/02/26 01:22:59;;;;;;;0.00;0.00;;;;;;;3.56;63.06;101887.09;5009587;28;20041;-70
2022/02/26 01:25:25;;;;;;;0.00;0.00;;;;;;;3.54;62.74;101892.69;5028119;28;20148;-69
2022/02/26 01:27:50;;;;;;;0.00;0.00;;;;;;;3.56;63.05;101897.91;5010589;28;20057;-69
2022/02/26 01:30:16;;;;;;;0.00;0.00;;;;;;;3.53;63.32;101888.28;5018402;28;20109;-70
2022/02/26 01:32:41;;;;;;;0.00;0.00;;;;;;;3.54;63.13;101897.25;5029739;28;20053;-69
2022/02/26 01:35:08;;;;;;;0.00;0.00;;;;;;;3.54;63.28;101889.16;5009879;28;20057;-69
2022/02/26 01:37:33;;;;;;;0.00;0.00;;;;;;;3.49;63.40;101892.41;5012957;28;20040;-72
2022/02/26 01:39:59;;;;;;;0.00;0.00;;;;;;;3.50;62.96;101894.06;5001902;28;20039;-71
2022/02/26 01:42:24;;;;;;;0.00;0.00;;;;;;;3.48;63.25;101891.56;4975360;28;20034;-72
2022/02/26 01:44:52;;;;;;;0.00;0.00;;;;;;;3.43;63.15;101877.75;4975013;28;20461;-70
2022/02/26 01:47:18;;;;;;;0.00;0.00;;;;;;;3.42;63.51;101880.63;4975238;28;20548;-68
2022/02/26 01:49:44;;;;;;;0.00;0.00;;;;;;;3.42;64.12;101884.19;4979667;28;20074;-69
2022/02/26 01:52:12;;;;;;;0.00;0.00;;;;;;;3.40;63.46;101888.06;4975468;28;20030;-71
2022/02/26 01:54:38;;;;;;;0.00;0.00;;;;;;;3.41;63.63;101884.34;5004203;28;20033;-70
2022/02/26 01:57:05;;;;;;;0.00;0.00;;;;;;;3.39;63.49;101886.38;4991547;28;20027;-71
2022/02/26 01:59:30;;;;;;;0.00;0.00;;;;;;;3.36;63.36;101886.75;4972153;28;20105;-69
2022/02/26 02:01:56;;;;;;;0.00;0.00;;;;;;;3.37;63.52;101883.03;4975150;28;20501;-68
2022/02/26 02:04:21;;;;;;;0.00;0.00;;;;;;;3.35;64.03;101885.09;4973142;28;20022;-71
2022/02/26 02:06:47;;;;;;;0.00;0.00;;;;;;;3.31;63.61;101885.47;4997441;28;20018;-71
2022/02/26 02:09:13;;;;;;;0.00;0.00;;;;;;;3.28;63.13;101874.16;4981155;28;20027;-70
2022/02/26 02:11:39;;;;;;;0.00;0.00;;;;;;;3.24;63.57;101878.25;5007442;28;20035;-70
2022/02/26 02:14:04;;;;;;;0.00;0.00;;;;;;;3.24;63.44;101876.41;4990773;28;20389;-70
2022/02/26 02:16:30;;;;;;;0.00;0.00;;;;;;;3.20;63.82;101868.81;4983670;28;20034;-70
2022/02/26 02:18:56;;;;;;;0.00;0.00;;;;;;;3.17;63.37;101867.31;4983241;28;20149;-70
2022/02/26 02:21:22;;;;;;;8.43;7.88;;;;;;;3.18;63.60;101869.00;4970545;28;20031;-70
2022/02/26 02:23:48;;;;;;;0.00;0.00;;;;;;;3.14;63.43;101862.28;5006266;28;20509;-70
2022/02/26 02:26:14;;;;;;;0.00;0.00;;;;;;;3.14;63.98;101875.81;4973874;28;20022;-71
2022/02/26 02:28:40;;;;;;;0.00;0.00;;;;;;;3.13;63.59;101882.22;4977351;28;20110;-72
2022/02/26 02:31:07;;;;;;;0.00;0.00;;;;;;;3.10;63.74;101866.38;5009728;28;20070;-73
2022/02/26 02:33:41;;;;;;;0.00;0.00;;;;;;;3.09;63.83;101864.69;4964867;28;20105;-73
2022/02/26 02:36:07;;;;;;;0.00;0.00;;;;;;;3.08;64.13;101865.69;4987710;28;20058;-73
2022/02/26 02:38:33;;;;;;;0.00;0.00;;;;;;;3.03;63.99;101858.13;4992689;28;20034;-72
2022/02/26 02:40:58;;;;;;;0.00;0.00;;;;;;;3.05;64.33;101852.53;5016133;28;20080;-72
2022/02/26 02:43:23;;;;;;;0.00;0.00;;;;;;;3.07;64.35;101855.91;5033453;28;20069;-71
2022/02/26 02:45:49;;;;;;;0.00;0.00;;;;;;;3.06;64.31;101848.81;4983526;28;20025;-71
2022/02/26 02:48:15;;;;;;;0.00;0.00;;;;;;;3.05;64.27;101857.94;4995695;28;20029;-71
2022/02/26 02:50:41;;;;;;;0.00;0.00;;;;;;;3.05;64.67;101847.13;5012519;28;20459;-72
2022/02/26 02:53:08;;;;;;;0.00;0.00;;;;;;;3.05;64.30;101857.94;5010109;28;20037;-72
2022/02/26 02:55:33;;;;;;;0.00;0.00;;;;;;;3.07;64.71;101861.31;5016436;28;20181;-71
2022/02/26 02:57:59;;;;;;;0.00;0.00;;;;;;;3.07;65.02;101845.94;5026717;28;20037;-71
2022/02/26 03:00:26;;;;;;;0.00;0.00;;;;;;;3.08;64.66;101844.06;5031921;28;20052;-72
2022/02/26 03:02:53;;;;;;;0.00;0.00;;;;;;;3.06;65.17;101843.41;5031776;28;20025;-72
2022/02/26 03:05:20;;;;;;;0.00;0.00;;;;;;;3.07;65.38;101837.00;5025796;28;20500;-72
2022/02/26 03:07:47;;;;;;;0.00;0.00;;;;;;;3.04;65.18;101835.50;5043671;28;20026;-72
2022/02/26 03:10:13;;;;;;;0.00;0.00;;;;;;;3.05;64.73;101831.78;5012797;28;20049;-71
2022/02/26 03:12:39;;;;;;;0.00;0.00;;;;;;;3.02;64.75;101829.41;5008840;28;20025;-70
2022/02/26 03:15:07;;;;;;;0.00;0.00;;;;;;;3.02;65.40;101836.69;5010314;28;20113;-69
2022/02/26 03:17:33;;;;;;;0.00;0.00;;;;;;;3.02;65.10;101831.28;5011097;28;20037;-71
2022/02/26 03:19:58;;;;;;;0.00;0.00;;;;;;;3.00;65.05;101823.38;5011154;28;20064;-70
2022/02/26 03:22:24;;;;;;;0.00;0.00;;;;;;;2.98;64.77;101820.00;5015530;28;20061;-71
2022/02/26 03:24:49;;;;;;;0.00;0.00;;;;;;;2.98;64.96;101833.53;5010964;28;20029;-71
2022/02/26 03:27:15;;;;;;;0.00;0.00;;;;;;;2.94;65.12;101819.53;5020989;28;20042;-70
2022/02/26 03:29:42;;;;;;;0.00;0.00;;;;;;;2.92;65.52;101816.16;5013250;28;20036;-71
2022/02/26 03:32:09;;;;;;;0.00;0.00;;;;;;;2.90;65.43;101812.78;5008767;28;20026;-70
2022/02/26 03:34:35;;;;;;;0.00;0.00;;;;;;;2.89;65.18;101815.69;5000618;28;20053;-71
2022/02/26 03:37:01;;;;;;;0.00;0.00;;;;;;;2.87;65.48;101809.63;5007760;28;20512;-71
2022/02/26 03:39:31;;;;;;;0.00;0.00;;;;;;;2.84;65.89;101800.00;5009223;28;20384;-70
2022/02/26 03:42:05;;;;;;;0.00;0.00;;;;;;;2.83;65.71;101803.72;5010094;28;20034;-70
2022/02/26 03:44:31;;;;;;;0.00;0.00;;;;;;;2.81;65.83;101792.28;5007520;28;20045;-72
2022/02/26 03:46:57;;;;;;;0.00;0.00;;;;;;;2.81;66.14;101792.28;4988785;28;20042;-71
2022/02/26 03:49:23;;;;;;;0.00;0.00;;;;;;;2.78;66.16;101798.03;5007706;28;20087;-70
2022/02/26 03:51:49;;;;;;;0.00;0.00;;;;;;;2.78;65.95;101792.63;5011310;28;20034;-71
2022/02/26 03:54:14;;;;;;;0.00;0.00;;;;;;;2.77;66.57;101788.25;5007771;28;20499;-71
2022/02/26 03:56:40;;;;;;;0.00;0.00;;;;;;;2.76;66.07;101783.84;5023040;28;20040;-71
2022/02/26 03:59:05;;;;;;;0.00;0.00;;;;;;;2.75;66.68;101782.19;4997552;28;20025;-70
2022/02/26 04:01:31;;;;;;;0.00;0.00;;;;;;;2.74;66.78;101780.50;5010516;28;20653;-71
2022/02/26 04:03:56;;;;;;;0.00;0.00;;;;;;;2.73;66.84;101792.31;5011971;28;20036;-71
2022/02/26 04:06:22;;;;;;;0.00;0.00;;;;;;;2.68;67.12;101775.84;5011620;28;20026;-70
2022/02/26 04:08:47;;;;;;;0.00;0.00;;;;;;;2.69;67.05;101772.94;5015270;28;20028;-70
2022/02/26 04:11:13;;;;;;;0.00;0.00;;;;;;;2.65;67.26;101776.19;5010289;28;20558;-71
2022/02/26 04:13:39;;;;;;;0.00;0.00;;;;;;;2.66;67.39;101778.72;5014190;28;20367;-70
2022/02/26 04:16:05;;;;;;;0.00;0.00;;;;;;;2.63;67.67;101773.69;5014655;28;20041;-69
2022/02/26 04:18:31;;;;;;;0.00;0.00;;;;;;;2.62;67.52;101775.53;5009360;28;20137;-70
2022/02/26 04:20:56;;;;;;;0.00;0.00;;;;;;;2.62;67.81;101778.22;5004991;28;20037;-69
2022/02/26 04:23:22;;;;;;;0.03;0.03;;;;;;;2.60;67.99;101769.47;5011399;28;20094;-71
2022/02/26 04:25:47;;;;;;;0.00;0.00;;;;;;;2.62;67.63;101772.81;5011012;28;20053;-70
2022/02/26 04:28:13;;;;;;;0.00;0.00;;;;;;;2.62;67.94;101766.59;5013452;28;20032;-70
2022/02/26 04:30:39;;;;;;;0.00;0.00;;;;;;;2.60;68.24;101774.88;5029862;28;20064;-70
2022/02/26 04:33:08;;;;;;;0.00;0.00;;;;;;;2.58;68.37;101765.25;5013082;28;20109;-70
2022/02/26 04:35:34;;;;;;;0.00;0.00;;;;;;;2.62;68.82;101770.13;5016332;28;20487;-71
2022/02/26 04:38:00;;;;;;;0.00;0.00;;;;;;;2.64;68.50;101774.50;5016269;28;20056;-70
2022/02/26 04:40:26;;;;;;;0.00;0.00;;;;;;;2.62;68.59;101778.22;5021791;28;20108;-72
2022/02/26 04:42:54;;;;;;;0.00;0.00;;;;;;;2.62;68.79;101762.00;5028442;28;20690;-71
2022/02/26 04:45:19;;;;;;;0.35;0.35;;;;;;;2.65;69.01;101770.78;5016068;28;20026;-70
2022/02/26 04:47:45;;;;;;;0.00;0.00;;;;;;;2.65;69.38;101776.19;5035845;28;20602;-70
2022/02/26 04:50:14;;;;;;;0.00;0.00;;;;;;;2.65;69.37;101770.78;5014502;28;20018;-70
2022/02/26 04:52:41;;;;;;;0.00;0.00;;;;;;;2.68;69.43;101770.44;5006741;28;20025;-71
2022/02/26 04:55:07;;;;;;;0.00;0.00;;;;;;;2.69;69.58;101777.53;5027839;28;20117;-69
2022/02/26 04:57:33;;;;;;;0.00;0.00;;;;;;;2.70;69.70;101773.78;5012277;28;20480;-70
2022/02/26 04:59:59;;;;;;;0.00;0.00;;;;;;;2.69;70.10;101767.56;5012376;28;20167;-70
2022/02/26 05:02:25;;;;;;;0.00;0.00;;;;;;;2.68;69.87;101771.25;4997198;28;20117;-71
2022/02/26 05:04:50;;;;;;;0.00;0.00;;;;;;;2.69;70.44;101767.56;5016118;28;20037;-71
2022/02/26 05:07:16;;;;;;;0.00;0.00;;;;;;;2.68;70.61;101754.22;5011612;28;20506;-72
2022/02/26 05:09:42;;;;;;;0.00;0.00;;;;;;;2.69;70.67;101766.72;5004064;28;20050;-72
2022/02/26 05:12:09;;;;;;;0.00;0.00;;;;;;;2.68;71.01;101762.31;5003820;28;20089;-73
2022/02/26 05:14:34;;;;;;;0.00;0.00;;;;;;;2.68;70.51;101759.63;5029646;28;20088;-71
2022/02/26 05:17:02;;;;;;;0.00;0.00;;;;;;;2.71;70.80;101768.19;5005612;28;20033;-73
2022/02/26 05:19:27;;;;;;;0.00;0.00;;;;;;;2.65;70.35;101760.00;5019155;28;20030;-70
2022/02/26 05:21:53;;;;;;;0.00;0.00;;;;;;;2.65;70.88;101743.78;5018605;28;20048;-70
2022/02/26 05:24:19;;;;;;;0.00;0.00;;;;;;;2.68;70.71;101760.47;5019329;28;20037;-71
2022/02/26 05:26:44;;;;;;;0.00;0.00;;;;;;;2.68;70.50;101754.22;5030767;28;20041;-71
2022/02/26 05:29:19;;;;;;;0.00;0.00;;;;;;;2.60;70.70;101737.06;5029315;28;20045;-71
2022/02/26 05:31:45;;;;;;;0.00;0.00;;;;;;;2.59;70.66;101735.38;5003758;28;20040;-72
2022/02/26 05:34:13;;;;;;;0.00;0.00;;;;;;;2.65;70.76;101741.09;5014530;28;20450;-72
2022/02/26 05:36:41;;;;;;;0.00;0.00;;;;;;;2.59;70.98;101737.25;4997358;28;20034;-72
2022/02/26 05:39:07;;;;;;;0.00;0.00;;;;;;;2.59;70.67;101738.06;5014276;28;20065;-71
2022/02/26 05:41:32;;;;;;;0.00;0.00;;;;;;;2.56;70.86;101729.50;5012048;28;20053;-71
2022/02/26 05:44:00;;;;;;;0.00;0.00;;;;;;;2.52;70.93;101722.78;5016810;28;20037;-72
2022/02/26 05:46:26;;;;;;;0.00;0.00;;;;;;;2.55;71.24;101734.03;5014984;28;20025;-72
2022/02/26 05:48:51;;;;;;;0.00;0.00;;;;;;;2.52;71.55;101726.31;5012144;28;20024;-72
2022/02/26 05:51:16;;;;;;;0.22;0.22;;;;;;;2.50;70.85;101731.06;5012012;28;20112;-71
2022/02/26 05:53:42;;;;;;;0.00;0.00;;;;;;;2.49;71.31;101740.19;4995123;28;20040;-70
2022/02/26 05:56:08;;;;;;;0.00;0.00;;;;;;;2.46;71.78;101737.00;5035992;28;20029;-72
2022/02/26 05:58:34;;;;;;;0.00;0.00;;;;;;;2.46;71.84;101740.53;5019658;28;20047;-71
2022/02/26 06:00:59;;;;;;;0.00;0.00;;;;;;;2.45;71.63;101744.25;5007381;28;20073;-71
2022/02/26 06:03:25;;;;;;;0.00;0.00;;;;;;;2.37;71.81;101731.66;5011801;28;20061;-69
2022/02/26 06:05:50;;;;;;;0.00;0.00;;;;;;;2.42;72.02;101739.22;5011903;28;20033;-70
2022/02/26 06:08:15;;;;;;;0.00;0.00;;;;;;;2.42;72.38;101741.91;4995163;28;20073;-71
2022/02/26 06:10:41;;;;;;;0.00;0.00;;;;;;;2.43;72.01;101740.91;5010162;28;20112;-72
2022/02/26 06:13:06;;;;;;;0.00;0.00;;;;;;;2.40;72.23;101730.47;5010034;28;20459;-70
2022/02/26 06:15:32;;;;;;;0.57;0.57;;;;;;;2.42;72.27;101741.91;4994391;28;20452;-70
2022/02/26 06:17:58;;;;;;;0.00;0.00;;;;;;;2.40;72.78;101741.28;5005271;28;20038;-69
2022/02/26 06:20:24;;;;;;;0.00;0.00;;;;;;;2.41;72.41;101741.09;5012867;28;20574;-70
2022/02/26 06:22:50;;;;;;;0.00;0.00;;;;;;;2.43;73.18;101738.22;5001293;28;20033;-74
2022/02/26 06:25:16;;;;;;;0.00;0.00;;;;;;;2.43;73.03;101747.13;5018132;28;20029;-76
2022/02/26 06:27:43;;;;;;;0.00;0.00;;;;;;;2.45;73.47;101749.66;5015614;28;20476;-75
2022/02/26 06:30:10;;;;;;;0.00;0.00;;;;;;;2.49;73.41;101747.44;5020709;28;20045;-72
2022/02/26 06:33:16;;;;;;;;;;;;;;;;;;;;;
2022/02/26 06:36:05;;;;;;;0.00;0.00;;;;;;;2.47;73.38;101746.78;5012922;28;20022;-71
2022/02/26 06:38:33;;;;;;;0.00;0.00;;;;;;;2.49;73.82;101748.28;5009777;28;20047;-72
2022/02/26 06:41:14;;;;;;;;;;;;;;;;;;;;;
2022/02/26 06:43:42;;;;;;;0.00;0.00;;;;;;;2.51;73.91;101745.41;5008270;28;20041;-73
2022/02/26 06:46:11;;;;;;;0.38;0.38;;;;;;;2.57;74.26;101761.72;5013177;28;20026;-72
2022/02/26 06:48:44;;;;;;;0.00;0.00;;;;;;;2.51;73.94;101748.97;4996241;28;20088;-70
2022/02/26 06:52:12;;;;;;;0.00;0.00;;;;;;;2.60;73.71;101765.94;4995244;28;20030;-72
2022/02/26 06:54:39;;;;;;;0.00;0.00;;;;;;;2.55;73.80;101750.25;5011344;28;20446;-71
2022/02/26 06:57:41;;;;;;;0.00;0.00;;;;;;;2.54;73.80;101747.72;5014164;28;20021;-72
2022/02/26 07:00:18;;;;;;;0.00;0.00;;;;;;;2.53;73.84;101752.31;4989460;28;20088;-72
2022/02/26 07:05:59;;;;;;;;;;;;;;;;;;;;;
2022/02/26 07:08:55;;;;;;;;;;;;;;;;;;;;;
2022/02/26 07:11:31;;;;;;;0.00;0.00;;;;;;;2.48;74.81;101765.50;5010938;28;20028;-69
2022/02/26 07:13:59;;;;;;;0.00;0.00;;;;;;;2.51;74.70;101762.47;4980156;28;20042;-70
2022/02/26 07:16:37;;;;;;;0.00;0.00;;;;;;;2.47;74.75;101753.03;4992583;28;20040;-70
2022/02/26 07:19:17;;;;;;;;;;;;;;;;;;;;;
2022/02/26 07:21:46;;;;;;;0.00;0.00;;;;;;;2.56;74.88;101762.75;5019201;28;20029;-73
2022/02/26 07:24:22;;;;;;;;;;;;;;;;;;;;;
2022/02/26 07:26:50;;;;;;;0.00;0.00;;;;;;;2.60;75.19;101755.97;5012974;28;20494;-72
2022/02/26 07:29:24;;;;;;;0.52;0.52;;;;;;;2.70;75.45;101768.38;5014191;28;20064;-72
2022/02/26 07:31:56;;;;;;;0.00;0.00;;;;;;;2.68;75.38;101759.63;5023328;28;20100;-73
2022/02/26 07:34:24;;;;;;;0.00;0.00;;;;;;;2.78;75.22;101769.16;5008327;28;20036;-72
2022/02/26 07:36:57;;;;;;;0.00;0.00;;;;;;;2.83;75.71;101771.31;5011851;28;20026;-72
2022/02/26 07:39:25;;;;;;;0.00;0.00;;;;;;;2.81;75.79;101759.84;5011088;28;20054;-72
2022/02/26 07:41:54;;;;;;;0.00;0.00;;;;;;;2.86;75.99;101762.00;5013375;28;20032;-74
2022/02/26 07:44:19;;;;;;;0.00;0.00;;;;;;;2.95;75.79;101775.28;5015380;28;20056;-75
2022/02/26 07:46:45;;;;;;;0.00;0.00;;;;;;;3.01;76.40;101764.72;5018205;28;20392;-75
2022/02/26 07:49:13;;;;;;;0.00;0.00;;;;;;;3.10;76.54;101766.34;5012668;28;20023;-76
2022/02/26 07:52:31;;;;;;;;;;;;;;;;;;;;;
2022/02/26 07:55:30;;;;;;;0.00;0.00;;;;;;;3.74;77.51;101762.28;5018007;28;20568;-74
2022/02/26 07:58:17;;;;;;;;;;;;;;;;;;;;;
2022/02/26 08:00:44;;;;;;;0.00;0.00;;;;;;;4.72;76.55;101762.78;5019284;28;20094;-74
2022/02/26 08:03:13;;;;;;;0.00;0.00;;;;;;;5.15;75.00;101746.41;5020684;28;20129;-74
2022/02/26 08:06:18;;;;;;;0.00;0.00;;;;;;;5.83;74.09;101763.97;5032073;28;20097;-77
2022/02/26 08:08:47;;;;;;;0.32;0.32;;;;;;;6.15;71.34;101777.88;5021086;28;20039;-74
2022/02/26 08:11:15;;;;;;;0.00;0.00;;;;;;;5.97;70.70;101749.41;5020995;28;20034;-76
2022/02/26 08:13:41;;;;;;;0.00;0.00;;;;;;;5.86;71.55;101750.81;5022597;28;20026;-72
2022/02/26 08:16:09;;;;;;;0.00;0.00;;;;;;;5.92;71.53;101762.75;5017753;28;20030;-77
2022/02/26 08:18:35;;;;;;;0.00;0.00;;;;;;;6.08;72.10;101762.41;5025271;28;20029;-72
2022/02/26 08:21:00;;;;;;;0.00;0.00;;;;;;;6.58;72.04;101772.16;5024855;28;20375;-73
2022/02/26 08:23:27;;;;;;;0.00;0.00;;;;;;;6.96;70.88;101782.44;5005948;28;20037;-71
2022/02/26 08:25:52;;;;;;;0.00;0.00;;;;;;;7.14;69.32;101774.50;4998005;28;20022;-72
2022/02/26 08:28:18;;;;;;;0.00;0.00;;;;;;;7.10;69.32;101775.13;4995375;28;20464;-73
2022/02/26 08:30:44;;;;;;;0.00;0.00;;;;;;;7.06;69.73;101774.72;5018825;28;20036;-71
2022/02/26 08:33:09;;;;;;;0.00;0.00;;;;;;;7.27;70.48;101784.56;5016866;28;20118;-74
2022/02/26 08:35:37;;;;;;;0.00;0.00;;;;;;;7.59;69.93;101783.84;5014661;28;20030;-75
2022/02/26 08:38:04;;;;;;;0.00;0.00;;;;;;;7.69;68.64;101781.53;5009868;28;20037;-75
2022/02/26 08:40:29;;;;;;;0.00;0.00;;;;;;;7.56;68.42;101773.41;4991658;28;20065;-73
2022/02/26 08:42:58;;;;;;;0.00;0.00;;;;;;;7.31;69.53;101777.63;4977812;28;20031;-76
2022/02/26 08:45:44;;;;;;;0.00;0.00;;;;;;;7.08;69.55;101767.19;5011939;28;20369;-76
2022/02/26 08:48:12;;;;;;;0.00;0.00;;;;;;;7.02;71.07;101772.63;4985112;28;20377;-75
2022/02/26 08:50:38;;;;;;;0.00;0.00;;;;;;;7.14;70.91;101773.66;4974750;28;20022;-76
2022/02/26 08:53:03;;;;;;;0.00;0.00;;;;;;;7.35;72.36;101767.16;5014766;28;20085;-76
2022/02/26 08:55:32;;;;;;;0.00;0.00;;;;;;;7.75;72.29;101769.78;4977328;28;20638;-77
2022/02/26 08:57:59;;;;;;;0.00;0.00;;;;;;;8.21;71.90;101749.69;4989018;28;20063;-74
2022/02/26 09:00:24;;;;;;;0.00;0.00;;;;;;;8.93;71.60;101769.59;4977853;28;20030;-74
2022/02/26 09:02:50;;;;;;;0.00;0.00;;;;;;;9.47;70.76;101757.13;4979030;28;20147;-75
2022/02/26 09:05:17;;;;;;;0.00;0.00;;;;;;;9.79;69.34;101760.53;4981577;28;20524;-76
2022/02/26 09:07:43;;;;;;;0.00;0.00;;;;;;;10.06;69.49;101767.59;4989970;28;20410;-76
2022/02/26 09:10:10;;;;;;;0.00;0.00;;;;;;;10.53;69.24;101769.72;5042671;23;20085;-71
2022/02/26 09:12:36;;;;;;;0.00;0.00;;;;;;;10.98;69.46;101761.88;5007653;28;20104;-72
2022/02/26 09:15:17;;;;;;;0.00;0.00;;;;;;;11.37;67.78;101768.78;5013499;28;20548;-71
2022/02/26 09:17:43;;;;;;;0.00;0.00;;;;;;;11.81;67.89;101774.69;5010254;28;20041;-72
2022/02/26 09:20:10;;;;;;;0.00;0.00;;;;;;;12.25;67.24;101777.84;5025889;28;20013;-72
2022/02/26 09:22:37;;;;;;;0.00;0.00;;;;;;;12.60;65.97;101774.09;5023392;28;20467;-71
2022/02/26 09:25:14;;;;;;;0.00;0.00;;;;;;;12.54;65.14;101750.38;5029564;28;20760;-72
2022/02/26 09:27:48;;;;;;;0.00;0.00;;;;;;;12.79;65.21;101762.88;5012734;28;20436;-72
2022/02/26 09:30:14;;;;;;;0.00;0.00;;;;;;;12.87;63.90;101759.72;5016059;28;20105;-72
2022/02/26 09:32:42;;;;;;;0.00;0.00;;;;;;;13.13;63.34;101771.13;5025609;28;20479;-73
2022/02/26 09:35:11;;;;;;;0.00;0.00;;;;;;;13.51;62.90;101761.31;5030791;28;20021;-71
2022/02/26 09:37:36;;;;;;;0.00;0.00;;;;;;;13.94;61.39;101763.25;5008577;28;20060;-72
2022/02/26 09:40:06;;;;;;;0.00;0.00;;;;;;;14.37;60.18;101766.22;5023793;28;20710;-73
2022/02/26 09:42:39;;;;;;;0.00;0.00;;;;;;;14.93;59.36;101760.41;5021515;28;20048;-71
2022/02/26 09:45:30;;;;;;;0.00;0.00;;;;;;;15.37;57.30;101773.16;5024711;28;20017;-74
2022/02/26 09:47:56;;;;;;;0.00;0.00;;;;;;;15.65;57.27;101751.81;5008723;28;20060;-73
2022/02/26 09:50:21;;;;;;;0.00;0.00;;;;;;;16.05;55.88;101761.41;5018177;28;20053;-72
2022/02/26 09:52:49;;;;;;;0.00;0.00;;;;;;;16.11;53.55;101754.78;5023629;28;20026;-72
2022/02/26 09:55:25;;;;;;;;;;;;;;;;;;;;;
2022/02/26 09:58:06;;;;;;;0.00;0.00;;;;;;;16.34;52.89;101760.91;5026625;28;20029;-71
2022/02/26 10:00:32;;;;;;;0.00;0.00;;;;;;;16.75;50.56;101736.13;5007863;28;20049;-74
2022/02/26 10:02:58;;;;;;;0.00;0.00;;;;;;;16.82;48.80;101747.75;5025765;28;20061;-73
2022/02/26 10:05:23;;;;;;;0.00;0.00;;;;;;;16.09;48.25;101739.59;4999955;28;20493;-71
2022/02/26 10:07:50;;;;;;;0.00;0.00;;;;;;;15.90;48.26;101725.47;5025309;28;20035;-76
2022/02/26 10:10:23;;;;;;;0.00;0.00;;;;;;;15.65;48.87;101730.59;5002591;28;20042;-74
2022/02/26 10:12:54;;;;;;;0.00;0.00;;;;;;;16.10;49.52;101747.59;5000613;28;20027;-75
2022/02/26 10:15:38;;;;;;;0.00;0.00;;;;;;;16.22;47.40;101722.53;5003364;28;20022;-77
2022/02/26 10:18:14;;;;;;;0.15;0.15;;;;;;;16.45;46.77;101726.72;5014911;28;20037;-72
2022/02/26 10:21:02;;;;;;;0.00;0.00;;;;;;;16.49;46.12;101735.28;5007323;28;20045;-76
2022/02/26 10:23:30;;;;;;;0.00;0.00;;;;;;;16.53;45.92;101715.13;4993780;28;20513;-72
2022/02/26 10:26:07;;;;;;;0.00;0.00;;;;;;;16.37;46.22;101730.84;5000718;28;20034;-72
2022/02/26 10:28:33;;;;;;;0.00;0.00;;;;;;;15.46;45.59;101727.47;5015636;28;20032;-72
2022/02/26 10:31:05;;;;;;;0.00;0.00;;;;;;;14.36;46.57;101715.00;5003341;28;20039;-71
2022/02/26 10:33:31;;;;;;;0.00;0.00;;;;;;;13.51;48.38;101729.16;5007269;28;20425;-70
2022/02/26 10:36:09;;;;;;;0.00;0.00;;;;;;;12.85;49.52;101729.78;4979176;28;20068;-72
2022/02/26 10:38:38;;;;;;;0.80;0.80;;;;;;;12.35;51.30;101730.53;5020742;28;20042;-74
2022/02/26 10:41:19;;;;;;;0.03;0.00;;;;;;;11.96;52.41;101728.47;5007416;28;20106;-74
2022/02/26 10:44:03;;;;;;;;;;;;;;;;;;;;;
2022/02/26 10:46:33;;;;;;;0.00;0.00;;;;;;;11.29;54.11;101717.97;5014330;28;20030;-73
2022/02/26 10:49:10;;;;;;;0.00;0.00;;;;;;;10.99;53.67;101710.69;5019011;28;20026;-74
2022/02/26 10:51:43;;;;;;;0.00;0.00;;;;;;;10.87;54.48;101743.53;4998150;28;20144;-71
2022/02/26 10:55:22;;;;;;;;;;;;;;;;;;;;;
2022/02/26 11:02:10;;;;;;;;;;;;;;;;;;;;;
2022/02/26 11:05:24;;;;;;;0.00;0.00;;;;;;;12.79;54.30;101714.31;4926783;29;20039;-72
2022/02/26 11:08:32;;;;;;;;;;;;;;;;;;;;;
2022/02/26 11:40:16;;;;;;;0.00;0.00;;;;;;;19.31;36.00;101663.09;6319779;22;20041;-73
2022/02/26 12:51:33;;;;;;;0.00;0.00;;;;;;;20.98;27.80;101600.03;6314811;22;20077;-72
2022/02/26 12:54:08;;;;;;;0.00;0.00;;;;;;;20.70;27.98;101611.13;6315564;22;20007;-71
2022/02/26 12:56:39;;;;;;;0.00;0.00;;;;;;;20.24;27.68;101615.50;6311953;22;20010;-73
2022/02/26 12:59:14;;;;;;;0.63;0.63;;;;;;;19.80;28.17;101612.00;6308061;22;20076;-71
2022/02/26 13:01:41;;;;;;;;;;;;;;;19.33;28.72;101592.34;6305509;22;20310;-72
2022/02/26 13:04:12;;;;;;;0.00;0.00;;;;;;;19.48;29.53;101582.19;6306797;22;19910;-73
2022/02/26 13:07:11;;;;;;;;;;;;;;;;;;;;;
2022/02/26 13:09:52;;;;;;;0.00;0.00;;;;;;;19.85;29.34;101580.56;6319186;22;20460;-76
2022/02/26 13:12:18;;;;;;;0.00;0.00;;;;;;;19.75;28.78;101578.72;6319713;22;19999;-76
2022/02/26 13:15:02;;;;;;;0.00;0.00;;;;;;;19.50;28.50;101586.28;6324810;22;20011;-73
2022/02/26 13:17:36;;;;;;;0.00;0.00;;;;;;;19.28;28.76;101577.72;6322308;22;19999;-71
2022/02/26 13:20:07;;;;;;;0.00;0.00;;;;;;;19.13;29.41;101575.97;6310762;22;20051;-72
2022/02/26 13:22:46;;;;;;;0.00;0.00;;;;;;;19.02;28.75;101581.63;6311014;22;20091;-72
2022/02/26 13:25:12;;;;;;;0.00;0.00;;;;;;;19.20;29.71;101570.88;6308362;22;20421;-71
2022/02/26 13:27:39;;;;;;;0.00;0.00;;;;;;;19.81;29.24;101565.63;6307680;22;20009;-70
2022/02/26 13:30:06;;;;;;;0.00;0.00;;;;;;;20.53;28.94;101567.19;6307808;22;20034;-74
2022/02/26 13:32:44;;;;;;;0.00;0.00;;;;;;;21.48;27.64;101560.31;6308824;22;20078;-70
2022/02/26 13:35:10;;;;;;;0.00;0.00;;;;;;;22.27;26.27;101561.81;6306280;22;20090;-73
2022/02/26 13:37:38;;;;;;;0.00;0.00;;;;;;;22.82;25.82;101555.91;6307403;22;20732;-74
2022/02/26 13:40:06;;;;;;;0.00;0.00;;;;;;;23.16;24.87;101576.69;6309808;22;19995;-72
2022/02/26 13:42:56;;;;;;;6.65;3.40;;;;;;;22.81;24.37;101565.41;6302096;22;20037;-68
2022/02/26 13:48:44;;;;;;;0.00;0.00;;;;;;;22.07;24.90;101574.28;6294443;22;20423;-69
2022/02/26 13:51:19;;;;;;;0.00;0.00;;;;;;;21.77;25.60;101541.31;6299333;22;20065;-70
2022/02/26 13:54:11;;;;;;;;;;;;;;;;;;;;;
2022/02/26 13:57:18;;;;;;;0.00;0.00;;;;;;;20.61;26.89;101560.94;6307739;22;20350;-72